sensor_id;sensor_type;location;lat;lon;timestamp;temperature;humidity
69626;DHT22;56847;51.984;5.088;2024-03-07T00:00:57;9.00;72.50
69626;DHT22;56847;51.984;5.088;2024-03-07T00:03:29;9.00;72.50
69626;DHT22;56847;51.984;5.088;2024-03-07T00:05:56;9.00;72.60
69626;DHT22;56847;51.984;5.088;2024-03-07T00:08:23;9.00;72.70
69626;DHT22;56847;51.984;5.088;2024-03-07T00:10:50;8.90;72.80
69626;DHT22;56847;51.984;5.088;2024-03-07T00:13:17;9.00;72.90
69626;DHT22;56847;51.984;5.088;2024-03-07T00:15:44;8.90;72.90
69626;DHT22;56847;51.984;5.088;2024-03-07T00:18:12;8.90;73.00
69626;DHT22;56847;51.984;5.088;2024-03-07T00:20:39;8.90;73.10
69626;DHT22;56847;51.984;5.088;2024-03-07T00:23:06;8.90;73.10
69626;DHT22;56847;51.984;5.088;2024-03-07T00:25:33;8.80;73.20
69626;DHT22;56847;51.984;5.088;2024-03-07T00:28:00;8.80;73.20
69626;DHT22;56847;51.984;5.088;2024-03-07T00:30:30;8.80;73.30
69626;DHT22;56847;51.984;5.088;2024-03-07T00:32:57;8.80;73.20
69626;DHT22;56847;51.984;5.088;2024-03-07T00:35:25;8.70;73.30
69626;DHT22;56847;51.984;5.088;2024-03-07T00:37:56;8.70;73.30
69626;DHT22;56847;51.984;5.088;2024-03-07T00:40:23;8.70;73.40
69626;DHT22;56847;51.984;5.088;2024-03-07T00:42:50;8.70;73.30
69626;DHT22;56847;51.984;5.088;2024-03-07T00:45:18;8.70;73.40
69626;DHT22;56847;51.984;5.088;2024-03-07T00:47:45;8.70;73.40
69626;DHT22;56847;51.984;5.088;2024-03-07T00:50:12;8.70;73.30
69626;DHT22;56847;51.984;5.088;2024-03-07T00:52:39;8.60;73.40
69626;DHT22;56847;51.984;5.088;2024-03-07T00:55:07;8.60;73.40
69626;DHT22;56847;51.984;5.088;2024-03-07T00:57:37;8.60;73.30
69626;DHT22;56847;51.984;5.088;2024-03-07T01:00:04;8.60;73.40
69626;DHT22;56847;51.984;5.088;2024-03-07T01:02:32;8.60;73.40
69626;DHT22;56847;51.984;5.088;2024-03-07T01:05:01;8.60;73.40
69626;DHT22;56847;51.984;5.088;2024-03-07T01:07:28;8.50;73.40
69626;DHT22;56847;51.984;5.088;2024-03-07T01:09:55;8.50;73.40
69626;DHT22;56847;51.984;5.088;2024-03-07T01:12:22;8.50;73.40
69626;DHT22;56847;51.984;5.088;2024-03-07T01:14:51;8.50;73.40
69626;DHT22;56847;51.984;5.088;2024-03-07T01:17:18;8.40;73.40
69626;DHT22;56847;51.984;5.088;2024-03-07T01:19:45;8.40;73.40
69626;DHT22;56847;51.984;5.088;2024-03-07T01:22:12;8.40;73.50
69626;DHT22;56847;51.984;5.088;2024-03-07T01:24:40;8.40;73.60
69626;DHT22;56847;51.984;5.088;2024-03-07T01:27:07;8.40;73.60
69626;DHT22;56847;51.984;5.088;2024-03-07T01:29:34;8.40;73.60
69626;DHT22;56847;51.984;5.088;2024-03-07T01:32:01;8.40;73.60
69626;DHT22;56847;51.984;5.088;2024-03-07T01:34:29;8.40;73.70
69626;DHT22;56847;51.984;5.088;2024-03-07T01:36:57;8.30;73.70
69626;DHT22;56847;51.984;5.088;2024-03-07T01:39:24;8.30;73.80
69626;DHT22;56847;51.984;5.088;2024-03-07T01:41:51;8.30;73.80
69626;DHT22;56847;51.984;5.088;2024-03-07T01:44:18;8.30;73.80
69626;DHT22;56847;51.984;5.088;2024-03-07T01:46:45;8.20;73.80
69626;DHT22;56847;51.984;5.088;2024-03-07T01:49:15;8.20;73.80
69626;DHT22;56847;51.984;5.088;2024-03-07T01:51:43;8.20;73.90
69626;DHT22;56847;51.984;5.088;2024-03-07T01:54:10;8.20;73.90
69626;DHT22;56847;51.984;5.088;2024-03-07T01:56:38;8.20;74.00
69626;DHT22;56847;51.984;5.088;2024-03-07T01:59:07;8.20;74.00
69626;DHT22;56847;51.984;5.088;2024-03-07T02:01:35;8.20;74.10
69626;DHT22;56847;51.984;5.088;2024-03-07T02:04:03;8.20;74.10
69626;DHT22;56847;51.984;5.088;2024-03-07T02:06:32;8.10;74.10
69626;DHT22;56847;51.984;5.088;2024-03-07T02:09:00;8.10;74.10
69626;DHT22;56847;51.984;5.088;2024-03-07T02:11:29;8.10;74.10
69626;DHT22;56847;51.984;5.088;2024-03-07T02:13:57;8.10;74.20
69626;DHT22;56847;51.984;5.088;2024-03-07T02:16:24;8.10;74.20
69626;DHT22;56847;51.984;5.088;2024-03-07T02:18:51;8.10;74.20
69626;DHT22;56847;51.984;5.088;2024-03-07T02:21:18;8.10;74.20
69626;DHT22;56847;51.984;5.088;2024-03-07T02:23:45;8.00;74.30
69626;DHT22;56847;51.984;5.088;2024-03-07T02:26:13;8.00;74.30
69626;DHT22;56847;51.984;5.088;2024-03-07T02:28:41;8.00;74.30
69626;DHT22;56847;51.984;5.088;2024-03-07T02:31:08;8.00;74.40
69626;DHT22;56847;51.984;5.088;2024-03-07T02:33:35;8.00;74.40
69626;DHT22;56847;51.984;5.088;2024-03-07T02:36:02;8.00;74.50
69626;DHT22;56847;51.984;5.088;2024-03-07T02:38:30;8.00;74.50
69626;DHT22;56847;51.984;5.088;2024-03-07T02:40:57;7.90;74.50
69626;DHT22;56847;51.984;5.088;2024-03-07T02:43:25;7.90;74.60
69626;DHT22;56847;51.984;5.088;2024-03-07T02:45:52;8.00;74.80
69626;DHT22;56847;51.984;5.088;2024-03-07T02:48:19;8.00;75.10
69626;DHT22;56847;51.984;5.088;2024-03-07T02:50:46;8.10;75.30
69626;DHT22;56847;51.984;5.088;2024-03-07T02:53:14;8.20;75.40
69626;DHT22;56847;51.984;5.088;2024-03-07T02:55:44;8.20;75.50
69626;DHT22;56847;51.984;5.088;2024-03-07T02:58:11;8.30;75.50
69626;DHT22;56847;51.984;5.088;2024-03-07T03:00:38;8.40;75.40
69626;DHT22;56847;51.984;5.088;2024-03-07T03:03:06;8.40;75.50
69626;DHT22;56847;51.984;5.088;2024-03-07T03:05:33;8.50;75.40
69626;DHT22;56847;51.984;5.088;2024-03-07T03:08:00;8.50;75.40
69626;DHT22;56847;51.984;5.088;2024-03-07T03:10:27;8.50;75.40
69626;DHT22;56847;51.984;5.088;2024-03-07T03:12:58;8.50;75.40
69626;DHT22;56847;51.984;5.088;2024-03-07T03:15:27;8.50;75.40
69626;DHT22;56847;51.984;5.088;2024-03-07T03:17:54;8.60;75.50
69626;DHT22;56847;51.984;5.088;2024-03-07T03:20:21;8.60;75.50
69626;DHT22;56847;51.984;5.088;2024-03-07T03:22:54;8.60;75.40
69626;DHT22;56847;51.984;5.088;2024-03-07T03:25:42;8.60;75.40
69626;DHT22;56847;51.984;5.088;2024-03-07T03:28:09;8.60;75.40
69626;DHT22;56847;51.984;5.088;2024-03-07T03:30:41;8.60;75.30
69626;DHT22;56847;51.984;5.088;2024-03-07T03:33:08;8.60;75.30
69626;DHT22;56847;51.984;5.088;2024-03-07T03:35:37;8.60;75.20
69626;DHT22;56847;51.984;5.088;2024-03-07T03:38:04;8.50;74.90
69626;DHT22;56847;51.984;5.088;2024-03-07T03:40:31;8.40;74.80
69626;DHT22;56847;51.984;5.088;2024-03-07T03:42:58;8.40;74.70
69626;DHT22;56847;51.984;5.088;2024-03-07T03:45:25;8.30;74.70
69626;DHT22;56847;51.984;5.088;2024-03-07T03:47:53;8.20;74.80
69626;DHT22;56847;51.984;5.088;2024-03-07T03:50:21;8.20;74.80
69626;DHT22;56847;51.984;5.088;2024-03-07T03:52:51;8.10;74.80
69626;DHT22;56847;51.984;5.088;2024-03-07T03:55:18;8.10;74.80
69626;DHT22;56847;51.984;5.088;2024-03-07T03:57:48;8.00;74.80
69626;DHT22;56847;51.984;5.088;2024-03-07T04:00:15;8.00;74.80
69626;DHT22;56847;51.984;5.088;2024-03-07T04:02:47;8.00;74.90
69626;DHT22;56847;51.984;5.088;2024-03-07T04:05:18;7.90;74.90
69626;DHT22;56847;51.984;5.088;2024-03-07T04:07:48;7.90;74.90
69626;DHT22;56847;51.984;5.088;2024-03-07T04:10:16;7.90;74.90
69626;DHT22;56847;51.984;5.088;2024-03-07T04:12:44;7.80;74.90
69626;DHT22;56847;51.984;5.088;2024-03-07T04:15:14;7.80;74.90
69626;DHT22;56847;51.984;5.088;2024-03-07T04:17:46;7.80;75.00
69626;DHT22;56847;51.984;5.088;2024-03-07T04:20:15;7.80;75.00
69626;DHT22;56847;51.984;5.088;2024-03-07T04:22:46;7.70;75.10
69626;DHT22;56847;51.984;5.088;2024-03-07T04:25:13;7.70;75.10
69626;DHT22;56847;51.984;5.088;2024-03-07T04:27:41;7.70;75.20
69626;DHT22;56847;51.984;5.088;2024-03-07T04:30:09;7.70;75.20
69626;DHT22;56847;51.984;5.088;2024-03-07T04:32:38;7.70;75.10
69626;DHT22;56847;51.984;5.088;2024-03-07T04:35:06;7.70;75.10
69626;DHT22;56847;51.984;5.088;2024-03-07T04:37:40;7.60;75.20
69626;DHT22;56847;51.984;5.088;2024-03-07T04:40:09;7.60;75.20
69626;DHT22;56847;51.984;5.088;2024-03-07T04:42:43;7.60;75.30
69626;DHT22;56847;51.984;5.088;2024-03-07T04:45:11;7.60;75.30
69626;DHT22;56847;51.984;5.088;2024-03-07T04:47:41;7.60;75.30
69626;DHT22;56847;51.984;5.088;2024-03-07T04:50:09;7.50;75.40
69626;DHT22;56847;51.984;5.088;2024-03-07T04:52:40;7.50;75.30
69626;DHT22;56847;51.984;5.088;2024-03-07T04:55:08;7.50;75.30
69626;DHT22;56847;51.984;5.088;2024-03-07T04:57:36;7.50;75.40
69626;DHT22;56847;51.984;5.088;2024-03-07T05:00:10;7.40;75.40
69626;DHT22;56847;51.984;5.088;2024-03-07T05:02:44;7.40;75.50
69626;DHT22;56847;51.984;5.088;2024-03-07T05:05:12;7.40;75.50
69626;DHT22;56847;51.984;5.088;2024-03-07T05:07:40;7.40;75.40
69626;DHT22;56847;51.984;5.088;2024-03-07T05:10:08;7.40;75.50
69626;DHT22;56847;51.984;5.088;2024-03-07T05:12:35;7.40;75.50
69626;DHT22;56847;51.984;5.088;2024-03-07T05:15:05;7.30;75.50
69626;DHT22;56847;51.984;5.088;2024-03-07T05:17:32;7.30;75.60
69626;DHT22;56847;51.984;5.088;2024-03-07T05:20:02;7.30;75.60
69626;DHT22;56847;51.984;5.088;2024-03-07T05:22:30;7.30;75.50
69626;DHT22;56847;51.984;5.088;2024-03-07T05:24:58;7.30;75.50
69626;DHT22;56847;51.984;5.088;2024-03-07T05:27:26;7.20;75.50
69626;DHT22;56847;51.984;5.088;2024-03-07T05:29:54;7.30;75.60
69626;DHT22;56847;51.984;5.088;2024-03-07T05:32:31;7.20;75.50
69626;DHT22;56847;51.984;5.088;2024-03-07T05:35:01;7.20;75.50
69626;DHT22;56847;51.984;5.088;2024-03-07T05:37:28;7.20;75.60
69626;DHT22;56847;51.984;5.088;2024-03-07T05:39:55;7.20;75.60
69626;DHT22;56847;51.984;5.088;2024-03-07T05:42:22;7.20;75.60
69626;DHT22;56847;51.984;5.088;2024-03-07T05:44:51;7.20;75.60
69626;DHT22;56847;51.984;5.088;2024-03-07T05:47:21;7.20;75.60
69626;DHT22;56847;51.984;5.088;2024-03-07T05:49:48;7.20;75.60
69626;DHT22;56847;51.984;5.088;2024-03-07T05:52:15;7.20;75.60
69626;DHT22;56847;51.984;5.088;2024-03-07T05:54:43;7.20;75.70
69626;DHT22;56847;51.984;5.088;2024-03-07T05:57:11;7.10;75.70
69626;DHT22;56847;51.984;5.088;2024-03-07T05:59:38;7.10;75.70
69626;DHT22;56847;51.984;5.088;2024-03-07T06:02:06;7.10;75.80
69626;DHT22;56847;51.984;5.088;2024-03-07T06:04:33;7.10;75.70
69626;DHT22;56847;51.984;5.088;2024-03-07T06:07:01;7.10;75.70
69626;DHT22;56847;51.984;5.088;2024-03-07T06:09:28;7.10;75.70
69626;DHT22;56847;51.984;5.088;2024-03-07T06:11:55;7.10;75.70
69626;DHT22;56847;51.984;5.088;2024-03-07T06:14:22;7.10;75.70
69626;DHT22;56847;51.984;5.088;2024-03-07T06:16:51;7.10;75.80
69626;DHT22;56847;51.984;5.088;2024-03-07T06:19:21;7.10;75.80
69626;DHT22;56847;51.984;5.088;2024-03-07T06:21:48;7.10;75.80
69626;DHT22;56847;51.984;5.088;2024-03-07T06:24:16;7.00;75.80
69626;DHT22;56847;51.984;5.088;2024-03-07T06:26:45;7.10;75.80
69626;DHT22;56847;51.984;5.088;2024-03-07T06:29:26;7.00;75.90
69626;DHT22;56847;51.984;5.088;2024-03-07T06:31:56;7.00;75.90
69626;DHT22;56847;51.984;5.088;2024-03-07T06:34:24;7.10;76.00
69626;DHT22;56847;51.984;5.088;2024-03-07T06:36:51;7.10;76.00
69626;DHT22;56847;51.984;5.088;2024-03-07T06:39:18;7.10;76.10
69626;DHT22;56847;51.984;5.088;2024-03-07T06:41:49;7.10;76.10
69626;DHT22;56847;51.984;5.088;2024-03-07T06:44:16;7.10;76.20
69626;DHT22;56847;51.984;5.088;2024-03-07T06:46:44;7.10;76.30
69626;DHT22;56847;51.984;5.088;2024-03-07T06:49:12;7.10;76.30
69626;DHT22;56847;51.984;5.088;2024-03-07T06:51:39;7.10;76.40
69626;DHT22;56847;51.984;5.088;2024-03-07T06:54:06;7.10;76.40
69626;DHT22;56847;51.984;5.088;2024-03-07T06:56:34;7.10;76.50
69626;DHT22;56847;51.984;5.088;2024-03-07T06:59:03;7.20;76.50
69626;DHT22;56847;51.984;5.088;2024-03-07T07:01:31;7.20;76.60
69626;DHT22;56847;51.984;5.088;2024-03-07T07:04:00;7.20;76.70
69626;DHT22;56847;51.984;5.088;2024-03-07T07:06:30;7.20;76.70
69626;DHT22;56847;51.984;5.088;2024-03-07T07:08:58;7.30;76.70
69626;DHT22;56847;51.984;5.088;2024-03-07T07:11:26;7.30;76.70
69626;DHT22;56847;51.984;5.088;2024-03-07T07:14:01;7.30;76.80
69626;DHT22;56847;51.984;5.088;2024-03-07T07:16:30;7.40;76.80
69626;DHT22;56847;51.984;5.088;2024-03-07T07:18:58;7.40;76.90
69626;DHT22;56847;51.984;5.088;2024-03-07T07:21:25;7.50;76.80
69626;DHT22;56847;51.984;5.088;2024-03-07T07:23:52;7.50;76.90
69626;DHT22;56847;51.984;5.088;2024-03-07T07:26:19;7.50;76.90
69626;DHT22;56847;51.984;5.088;2024-03-07T07:28:46;7.60;76.90
69626;DHT22;56847;51.984;5.088;2024-03-07T07:31:13;7.70;76.90
69626;DHT22;56847;51.984;5.088;2024-03-07T07:33:40;7.70;77.00
69626;DHT22;56847;51.984;5.088;2024-03-07T07:36:07;7.80;76.90
69626;DHT22;56847;51.984;5.088;2024-03-07T07:38:37;7.90;77.00
69626;DHT22;56847;51.984;5.088;2024-03-07T07:41:04;7.90;76.90
69626;DHT22;56847;51.984;5.088;2024-03-07T07:43:32;8.00;76.90
69626;DHT22;56847;51.984;5.088;2024-03-07T07:46:09;8.10;76.90
69626;DHT22;56847;51.984;5.088;2024-03-07T07:48:36;8.20;76.70
69626;DHT22;56847;51.984;5.088;2024-03-07T07:51:03;8.20;76.60
69626;DHT22;56847;51.984;5.088;2024-03-07T07:53:32;8.30;76.60
69626;DHT22;56847;51.984;5.088;2024-03-07T07:55:59;8.40;76.50
69626;DHT22;56847;51.984;5.088;2024-03-07T07:58:26;8.40;76.30
69626;DHT22;56847;51.984;5.088;2024-03-07T08:00:53;8.40;76.40
69626;DHT22;56847;51.984;5.088;2024-03-07T08:03:20;8.50;76.20
69626;DHT22;56847;51.984;5.088;2024-03-07T08:05:49;8.60;75.90
69626;DHT22;56847;51.984;5.088;2024-03-07T08:08:16;8.60;76.00
69626;DHT22;56847;51.984;5.088;2024-03-07T08:10:46;8.70;75.70
69626;DHT22;56847;51.984;5.088;2024-03-07T08:13:14;8.70;75.60
69626;DHT22;56847;51.984;5.088;2024-03-07T08:15:42;8.80;75.50
69626;DHT22;56847;51.984;5.088;2024-03-07T08:18:09;8.80;75.50
69626;DHT22;56847;51.984;5.088;2024-03-07T08:20:38;8.90;75.50
69626;DHT22;56847;51.984;5.088;2024-03-07T08:23:07;9.00;75.20
69626;DHT22;56847;51.984;5.088;2024-03-07T08:25:35;9.10;75.00
69626;DHT22;56847;51.984;5.088;2024-03-07T08:28:03;9.20;74.90
69626;DHT22;56847;51.984;5.088;2024-03-07T08:30:30;9.30;74.60
69626;DHT22;56847;51.984;5.088;2024-03-07T08:32:59;9.30;74.30
69626;DHT22;56847;51.984;5.088;2024-03-07T08:35:29;9.40;74.10
69626;DHT22;56847;51.984;5.088;2024-03-07T08:37:56;9.40;73.70
69626;DHT22;56847;51.984;5.088;2024-03-07T08:40:29;9.50;73.50
69626;DHT22;56847;51.984;5.088;2024-03-07T08:43:01;9.60;73.80
69626;DHT22;56847;51.984;5.088;2024-03-07T08:45:28;9.70;73.50
69626;DHT22;56847;51.984;5.088;2024-03-07T08:47:57;9.80;73.00
69626;DHT22;56847;51.984;5.088;2024-03-07T08:50:26;9.90;72.50
69626;DHT22;56847;51.984;5.088;2024-03-07T08:52:55;9.90;72.40
69626;DHT22;56847;51.984;5.088;2024-03-07T08:55:24;10.00;71.80
69626;DHT22;56847;51.984;5.088;2024-03-07T08:58:01;10.00;71.60
69626;DHT22;56847;51.984;5.088;2024-03-07T09:00:28;10.10;71.50
69626;DHT22;56847;51.984;5.088;2024-03-07T09:02:57;10.20;71.30
69626;DHT22;56847;51.984;5.088;2024-03-07T09:05:29;10.20;71.30
69626;DHT22;56847;51.984;5.088;2024-03-07T09:08:00;10.30;70.20
69626;DHT22;56847;51.984;5.088;2024-03-07T09:10:27;10.40;69.80
69626;DHT22;56847;51.984;5.088;2024-03-07T09:12:58;10.40;69.00
69626;DHT22;56847;51.984;5.088;2024-03-07T09:15:26;10.40;69.30
69626;DHT22;56847;51.984;5.088;2024-03-07T09:17:54;10.50;69.50
69626;DHT22;56847;51.984;5.088;2024-03-07T09:20:22;10.60;69.70
69626;DHT22;56847;51.984;5.088;2024-03-07T09:22:51;10.60;69.00
69626;DHT22;56847;51.984;5.088;2024-03-07T09:25:21;10.70;68.20
69626;DHT22;56847;51.984;5.088;2024-03-07T09:27:48;10.70;67.10
69626;DHT22;56847;51.984;5.088;2024-03-07T09:30:15;10.70;67.40
69626;DHT22;56847;51.984;5.088;2024-03-07T09:32:46;10.80;67.60
69626;DHT22;56847;51.984;5.088;2024-03-07T09:35:13;10.90;67.60
69626;DHT22;56847;51.984;5.088;2024-03-07T09:37:43;11.00;66.70
69626;DHT22;56847;51.984;5.088;2024-03-07T09:40:11;11.00;66.00
69626;DHT22;56847;51.984;5.088;2024-03-07T09:42:45;11.00;66.40
69626;DHT22;56847;51.984;5.088;2024-03-07T09:45:18;11.00;66.30
69626;DHT22;56847;51.984;5.088;2024-03-07T09:47:49;11.10;66.40
69626;DHT22;56847;51.984;5.088;2024-03-07T09:50:21;11.30;65.80
69626;DHT22;56847;51.984;5.088;2024-03-07T09:52:52;11.30;65.60
69626;DHT22;56847;51.984;5.088;2024-03-07T09:55:22;11.40;65.30
69626;DHT22;56847;51.984;5.088;2024-03-07T09:57:53;11.40;64.60
69626;DHT22;56847;51.984;5.088;2024-03-07T10:00:24;11.50;64.50
69626;DHT22;56847;51.984;5.088;2024-03-07T10:02:58;11.50;64.30
69626;DHT22;56847;51.984;5.088;2024-03-07T10:05:29;11.60;64.70
69626;DHT22;56847;51.984;5.088;2024-03-07T10:07:58;11.70;64.60
69626;DHT22;56847;51.984;5.088;2024-03-07T10:10:26;11.80;63.80
69626;DHT22;56847;51.984;5.088;2024-03-07T10:12:53;11.90;64.00
69626;DHT22;56847;51.984;5.088;2024-03-07T10:15:21;11.90;63.90
69626;DHT22;56847;51.984;5.088;2024-03-07T10:17:49;12.00;63.70
69626;DHT22;56847;51.984;5.088;2024-03-07T10:20:18;12.10;63.10
69626;DHT22;56847;51.984;5.088;2024-03-07T10:22:50;12.10;62.60
69626;DHT22;56847;51.984;5.088;2024-03-07T10:25:23;12.20;62.10
69626;DHT22;56847;51.984;5.088;2024-03-07T10:27:52;12.30;62.40
69626;DHT22;56847;51.984;5.088;2024-03-07T10:30:19;12.40;62.50
69626;DHT22;56847;51.984;5.088;2024-03-07T10:32:59;12.50;62.30
69626;DHT22;56847;51.984;5.088;2024-03-07T10:35:29;12.60;61.70
69626;DHT22;56847;51.984;5.088;2024-03-07T10:38:03;12.60;61.40
69626;DHT22;56847;51.984;5.088;2024-03-07T10:40:35;12.70;60.50
69626;DHT22;56847;51.984;5.088;2024-03-07T10:43:07;12.70;60.60
69626;DHT22;56847;51.984;5.088;2024-03-07T10:45:50;12.80;59.40
69626;DHT22;56847;51.984;5.088;2024-03-07T10:48:20;12.70;59.40
69626;DHT22;56847;51.984;5.088;2024-03-07T10:53:49;12.70;59.10
69626;DHT22;56847;51.984;5.088;2024-03-07T10:56:44;12.70;58.50
69626;DHT22;56847;51.984;5.088;2024-03-07T10:59:17;12.70;57.30
69626;DHT22;56847;51.984;5.088;2024-03-07T11:01:56;12.70;57.30
69626;DHT22;56847;51.984;5.088;2024-03-07T11:04:24;12.70;57.90
69626;DHT22;56847;51.984;5.088;2024-03-07T11:06:53;12.90;58.40
69626;DHT22;56847;51.984;5.088;2024-03-07T11:09:24;13.10;58.20
69626;DHT22;56847;51.984;5.088;2024-03-07T11:12:02;13.20;58.30
69626;DHT22;56847;51.984;5.088;2024-03-07T11:14:31;13.40;57.90
69626;DHT22;56847;51.984;5.088;2024-03-07T11:16:59;13.50;56.50
69626;DHT22;56847;51.984;5.088;2024-03-07T11:19:29;13.70;55.80
69626;DHT22;56847;51.984;5.088;2024-03-07T11:21:59;13.70;54.80
69626;DHT22;56847;51.984;5.088;2024-03-07T11:24:27;13.70;54.40
69626;DHT22;56847;51.984;5.088;2024-03-07T11:27:04;13.70;54.00
69626;DHT22;56847;51.984;5.088;2024-03-07T11:29:47;13.80;54.10
69626;DHT22;56847;51.984;5.088;2024-03-07T11:32:15;13.80;53.90
69626;DHT22;56847;51.984;5.088;2024-03-07T11:34:44;13.80;54.10
69626;DHT22;56847;51.984;5.088;2024-03-07T11:37:37;13.80;54.30
69626;DHT22;56847;51.984;5.088;2024-03-07T11:40:08;13.90;54.00
69626;DHT22;56847;51.984;5.088;2024-03-07T11:42:48;13.90;53.30
69626;DHT22;56847;51.984;5.088;2024-03-07T11:45:17;13.80;53.10
69626;DHT22;56847;51.984;5.088;2024-03-07T11:47:58;13.70;53.10
69626;DHT22;56847;51.984;5.088;2024-03-07T11:50:40;13.80;53.50
69626;DHT22;56847;51.984;5.088;2024-03-07T11:53:11;13.90;53.10
69626;DHT22;56847;51.984;5.088;2024-03-07T11:55:40;13.90;52.10
69626;DHT22;56847;51.984;5.088;2024-03-07T11:58:16;13.80;52.20
69626;DHT22;56847;51.984;5.088;2024-03-07T12:00:44;13.80;52.40
69626;DHT22;56847;51.984;5.088;2024-03-07T12:03:18;13.70;52.50
69626;DHT22;56847;51.984;5.088;2024-03-07T12:05:49;13.80;52.90
69626;DHT22;56847;51.984;5.088;2024-03-07T12:08:18;13.80;52.80
69626;DHT22;56847;51.984;5.088;2024-03-07T12:10:50;13.80;52.60
69626;DHT22;56847;51.984;5.088;2024-03-07T12:13:25;13.60;52.70
69626;DHT22;56847;51.984;5.088;2024-03-07T12:15:54;13.40;53.20
69626;DHT22;56847;51.984;5.088;2024-03-07T12:18:23;13.40;53.70
69626;DHT22;56847;51.984;5.088;2024-03-07T12:20:51;13.40;53.50
69626;DHT22;56847;51.984;5.088;2024-03-07T12:23:23;13.40;53.80
69626;DHT22;56847;51.984;5.088;2024-03-07T12:26:03;13.60;54.10
69626;DHT22;56847;51.984;5.088;2024-03-07T12:28:32;13.80;54.10
69626;DHT22;56847;51.984;5.088;2024-03-07T12:31:02;13.80;53.80
69626;DHT22;56847;51.984;5.088;2024-03-07T12:33:31;13.80;53.60
69626;DHT22;56847;51.984;5.088;2024-03-07T12:36:06;13.70;53.30
69626;DHT22;56847;51.984;5.088;2024-03-07T12:38:36;13.60;53.00
69626;DHT22;56847;51.984;5.088;2024-03-07T12:41:06;13.40;53.10
69626;DHT22;56847;51.984;5.088;2024-03-07T12:43:35;13.40;53.50
69626;DHT22;56847;51.984;5.088;2024-03-07T12:46:05;13.40;53.50
69626;DHT22;56847;51.984;5.088;2024-03-07T12:48:32;13.40;52.90
69626;DHT22;56847;51.984;5.088;2024-03-07T12:51:00;13.20;53.20
69626;DHT22;56847;51.984;5.088;2024-03-07T12:53:28;13.20;53.70
69626;DHT22;56847;51.984;5.088;2024-03-07T12:55:56;13.20;53.60
69626;DHT22;56847;51.984;5.088;2024-03-07T12:58:24;13.20;53.60
69626;DHT22;56847;51.984;5.088;2024-03-07T13:00:55;13.20;53.50
69626;DHT22;56847;51.984;5.088;2024-03-07T13:03:26;13.30;53.80
69626;DHT22;56847;51.984;5.088;2024-03-07T13:05:58;13.40;53.90
69626;DHT22;56847;51.984;5.088;2024-03-07T13:08:29;13.40;53.70
69626;DHT22;56847;51.984;5.088;2024-03-07T13:10:58;13.50;53.60
69626;DHT22;56847;51.984;5.088;2024-03-07T13:13:27;13.50;53.30
69626;DHT22;56847;51.984;5.088;2024-03-07T13:15:54;13.50;53.40
69626;DHT22;56847;51.984;5.088;2024-03-07T13:18:24;13.50;53.40
69626;DHT22;56847;51.984;5.088;2024-03-07T13:20:52;13.50;53.20
69626;DHT22;56847;51.984;5.088;2024-03-07T13:23:19;13.50;52.80
69626;DHT22;56847;51.984;5.088;2024-03-07T13:25:47;13.50;52.60
69626;DHT22;56847;51.984;5.088;2024-03-07T13:28:15;13.50;52.40
69626;DHT22;56847;51.984;5.088;2024-03-07T13:30:51;13.40;52.30
69626;DHT22;56847;51.984;5.088;2024-03-07T13:33:22;13.40;52.60
69626;DHT22;56847;51.984;5.088;2024-03-07T13:35:53;13.40;52.80
69626;DHT22;56847;51.984;5.088;2024-03-07T13:38:20;13.40;52.80
69626;DHT22;56847;51.984;5.088;2024-03-07T13:40:47;13.50;53.00
69626;DHT22;56847;51.984;5.088;2024-03-07T13:43:16;13.50;53.20
69626;DHT22;56847;51.984;5.088;2024-03-07T13:45:45;13.60;53.20
69626;DHT22;56847;51.984;5.088;2024-03-07T13:48:12;13.60;53.30
69626;DHT22;56847;51.984;5.088;2024-03-07T13:50:44;13.70;53.40
69626;DHT22;56847;51.984;5.088;2024-03-07T13:53:26;13.80;53.40
69626;DHT22;56847;51.984;5.088;2024-03-07T14:02:26;13.80;53.30
69626;DHT22;56847;51.984;5.088;2024-03-07T14:08:34;13.80;52.90
69626;DHT22;56847;51.984;5.088;2024-03-07T14:11:41;13.80;53.00
69626;DHT22;56847;51.984;5.088;2024-03-07T14:17:39;13.80;53.00
69626;DHT22;56847;51.984;5.088;2024-03-07T14:31:09;14.00;53.90
69626;DHT22;56847;51.984;5.088;2024-03-07T14:36:57;14.30;53.90
69626;DHT22;56847;51.984;5.088;2024-03-07T14:39:24;14.30;54.10
69626;DHT22;56847;51.984;5.088;2024-03-07T14:41:58;14.40;54.20
69626;DHT22;56847;51.984;5.088;2024-03-07T14:44:25;14.50;54.30
69626;DHT22;56847;51.984;5.088;2024-03-07T14:47:02;14.60;54.20
69626;DHT22;56847;51.984;5.088;2024-03-07T14:49:34;14.60;54.40
69626;DHT22;56847;51.984;5.088;2024-03-07T14:52:01;14.60;54.20
69626;DHT22;56847;51.984;5.088;2024-03-07T14:54:30;14.60;54.40
69626;DHT22;56847;51.984;5.088;2024-03-07T14:56:57;14.60;53.80
69626;DHT22;56847;51.984;5.088;2024-03-07T14:59:24;14.50;53.70
69626;DHT22;56847;51.984;5.088;2024-03-07T15:01:53;14.50;54.00
69626;DHT22;56847;51.984;5.088;2024-03-07T15:04:20;14.50;54.10
69626;DHT22;56847;51.984;5.088;2024-03-07T15:06:48;14.50;53.90
69626;DHT22;56847;51.984;5.088;2024-03-07T15:09:15;14.50;53.80
69626;DHT22;56847;51.984;5.088;2024-03-07T15:11:43;14.40;53.90
69626;DHT22;56847;51.984;5.088;2024-03-07T15:14:11;14.30;54.00
69626;DHT22;56847;51.984;5.088;2024-03-07T15:16:43;14.20;54.20
69626;DHT22;56847;51.984;5.088;2024-03-07T15:19:11;14.00;54.20
69626;DHT22;56847;51.984;5.088;2024-03-07T15:21:38;13.90;54.60
69626;DHT22;56847;51.984;5.088;2024-03-07T15:24:06;13.80;54.80
69626;DHT22;56847;51.984;5.088;2024-03-07T15:26:36;13.80;55.00
69626;DHT22;56847;51.984;5.088;2024-03-07T15:29:03;13.70;55.40
69626;DHT22;56847;51.984;5.088;2024-03-07T15:31:30;13.80;55.30
69626;DHT22;56847;51.984;5.088;2024-03-07T15:33:56;13.80;55.30
69626;DHT22;56847;51.984;5.088;2024-03-07T15:36:24;13.70;55.20
69626;DHT22;56847;51.984;5.088;2024-03-07T15:38:55;13.50;55.30
69626;DHT22;56847;51.984;5.088;2024-03-07T15:41:24;13.40;55.60
69626;DHT22;56847;51.984;5.088;2024-03-07T15:43:51;13.40;56.00
69626;DHT22;56847;51.984;5.088;2024-03-07T15:46:18;13.40;56.10
69626;DHT22;56847;51.984;5.088;2024-03-07T15:48:46;13.30;56.20
69626;DHT22;56847;51.984;5.088;2024-03-07T15:51:17;13.30;56.20
69626;DHT22;56847;51.984;5.088;2024-03-07T15:53:44;13.20;56.10
69626;DHT22;56847;51.984;5.088;2024-03-07T15:56:14;13.10;56.20
69626;DHT22;56847;51.984;5.088;2024-03-07T15:58:42;13.00;56.40
69626;DHT22;56847;51.984;5.088;2024-03-07T16:01:09;12.90;56.50
69626;DHT22;56847;51.984;5.088;2024-03-07T16:03:37;12.90;56.50
69626;DHT22;56847;51.984;5.088;2024-03-07T16:06:05;12.80;56.70
69626;DHT22;56847;51.984;5.088;2024-03-07T16:08:34;12.80;56.90
69626;DHT22;56847;51.984;5.088;2024-03-07T16:11:02;12.80;56.90
69626;DHT22;56847;51.984;5.088;2024-03-07T16:13:29;12.70;57.00
69626;DHT22;56847;51.984;5.088;2024-03-07T16:15:56;12.60;57.10
69626;DHT22;56847;51.984;5.088;2024-03-07T16:18:23;12.50;56.90
69626;DHT22;56847;51.984;5.088;2024-03-07T16:20:53;12.40;57.20
69626;DHT22;56847;51.984;5.088;2024-03-07T16:23:20;12.40;57.10